createdAt,value
2022-11-05T00:00:14.183Z,151582.06
2022-11-05T00:02:59.796Z,151553.72
2022-11-05T00:05:44.925Z,151524.13
2022-11-05T00:08:31.696Z,151544.72
2022-11-05T00:10:59.444Z,151462.34
2022-11-05T00:13:44.755Z,151498.38
2022-11-05T00:16:35.309Z,151475.22
2022-11-05T00:19:10.175Z,151477.78
2022-11-05T00:21:57.051Z,151470.06
2022-11-05T00:24:43.415Z,151455.88
2022-11-05T00:27:11.701Z,151435.31
2022-11-05T00:29:39.375Z,151430.19
2022-11-05T00:32:07.155Z,151408.28
2022-11-05T00:34:34.758Z,151387.72
2022-11-05T00:37:02.446Z,151369.72
2022-11-05T00:39:31.503Z,151374.81
2022-11-05T00:42:13.041Z,151367.13
2022-11-05T00:44:58.233Z,151346.53
2022-11-05T00:47:43.454Z,151336.22
2022-11-05T00:50:11.893Z,151318.22
2022-11-05T00:52:57.287Z,151319.50
2022-11-05T00:55:30.818Z,151291.19
2022-11-05T00:57:58.851Z,151282.19
2022-11-05T01:00:28.838Z,151275.78
2022-11-05T01:02:59.793Z,151270.59
2022-11-05T01:05:28.431Z,151259.03
2022-11-05T01:07:56.509Z,151251.34
2022-11-05T01:10:24.550Z,151239.78
2022-11-05T01:12:54.076Z,151190.91
2022-11-05T01:15:22.584Z,151205.00
2022-11-05T01:17:52.081Z,151189.59
2022-11-05T01:20:19.928Z,151163.84
2022-11-05T01:22:47.811Z,151130.47
2022-11-05T01:25:15.666Z,151172.84
2022-11-05T01:27:43.424Z,151126.56
2022-11-05T01:30:14.495Z,151112.41
2022-11-05T01:32:42.637Z,151099.59
2022-11-05T01:35:14.475Z,151149.72
2022-11-05T01:37:42.480Z,151130.47
2022-11-05T01:40:12.970Z,151111.16
2022-11-05T01:42:40.850Z,151045.56
2022-11-05T01:45:17.555Z,151129.16
2022-11-05T01:47:56.495Z,151151.03
2022-11-05T01:50:31.227Z,151149.72
2022-11-05T01:53:06.005Z,151153.59
2022-11-05T01:55:37.817Z,151129.16
2022-11-05T01:58:08.575Z,151040.44
2022-11-05T02:00:38.515Z,151120.16
2022-11-05T02:03:06.412Z,151112.41
2022-11-05T02:05:35.176Z,151019.88
2022-11-05T02:08:03.872Z,151102.16
2022-11-05T02:10:31.971Z,151070.03
2022-11-05T02:13:00.762Z,151081.59
2022-11-05T02:15:44.559Z,151076.44
2022-11-05T02:18:22.358Z,151026.28
2022-11-05T02:21:01.672Z,151071.28
2022-11-05T02:24:02.280Z,151084.19
2022-11-05T02:27:05.516Z,151055.88
2022-11-05T02:30:03.537Z,151068.72
2022-11-05T02:32:41.621Z,151045.56
2022-11-05T02:35:20.663Z,151041.75
2022-11-05T02:37:54.580Z,151019.88
2022-11-05T02:40:30.284Z,150932.50
2022-11-05T02:43:08.314Z,150955.63
2022-11-05T02:45:47.485Z,151023.75
2022-11-05T02:48:26.561Z,150968.44
2022-11-05T02:51:00.301Z,151044.31
2022-11-05T02:53:39.830Z,151062.31
2022-11-05T02:56:15.076Z,150990.31
2022-11-05T02:58:42.991Z,151050.72
2022-11-05T03:01:12.791Z,151034.00
2022-11-05T03:03:44.530Z,151037.84
2022-11-05T03:06:36.369Z,151045.56
2022-11-05T03:09:25.707Z,151032.75
2022-11-05T03:12:04.070Z,151030.16
2022-11-05T03:14:41.620Z,151019.88
2022-11-05T03:17:14.635Z,151025.03
2022-11-05T03:19:50.222Z,151014.72
2022-11-05T03:22:24.543Z,150981.31
2022-11-05T03:24:56.401Z,150976.19
2022-11-05T03:27:30.261Z,150963.34
2022-11-05T03:30:03.119Z,151013.44
2022-11-05T03:32:34.942Z,150944.06
2022-11-05T03:35:09.544Z,150973.59
2022-11-05T03:37:40.771Z,150989.00
2022-11-05T03:40:12.231Z,150982.59
2022-11-05T03:42:45.049Z,150971.03
2022-11-05T03:45:18.229Z,150945.31
2022-11-05T03:47:48.989Z,150965.88
2022-11-05T03:50:22.273Z,150887.50
2022-11-05T03:52:53.726Z,150971.03
2022-11-05T03:55:25.760Z,150999.31
2022-11-05T03:57:57.236Z,150982.59
2022-11-05T04:00:25.204Z,150971.03
2022-11-05T04:02:53.203Z,150911.94
2022-11-05T04:05:22.629Z,150933.75
2022-11-05T04:08:13.910Z,150964.59
2022-11-05T04:11:01.793Z,150918.34
2022-11-05T04:13:29.626Z,150983.91
2022-11-05T04:16:16.047Z,151001.88
2022-11-05T04:18:44.136Z,150996.72
2022-11-05T04:21:30.701Z,151027.59
2022-11-05T04:24:10.488Z,151022.44
2022-11-05T04:26:40.239Z,151026.28
2022-11-05T04:29:25.503Z,151106.00
2022-11-05T04:31:53.670Z,151094.44
2022-11-05T04:34:22.208Z,151113.72
2022-11-05T04:36:52.312Z,151107.31
2022-11-05T04:39:20.955Z,151091.84
2022-11-05T04:41:49.058Z,151112.41
2022-11-05T04:44:17.238Z,151133.00
2022-11-05T04:46:44.958Z,151140.72
2022-11-05T04:49:12.897Z,151109.84
2022-11-05T04:51:40.604Z,151125.31
2022-11-05T04:54:09.735Z,151153.59
2022-11-05T04:56:37.729Z,151109.84
2022-11-05T04:59:05.416Z,151130.47
2022-11-05T05:01:33.231Z,151117.56
2022-11-05T05:04:01.582Z,151127.88
2022-11-05T05:06:29.522Z,151143.28
2022-11-05T05:08:57.302Z,151147.13
2022-11-05T05:11:26.543Z,151126.56
2022-11-05T05:13:54.382Z,151156.19
2022-11-05T05:16:23.065Z,151138.13
2022-11-05T05:18:51.382Z,151156.19
2022-11-05T05:21:37.762Z,151061.00
2022-11-05T05:24:08.550Z,151127.88
2022-11-05T05:26:38.141Z,151130.47
2022-11-05T05:29:06.774Z,151135.56
2022-11-05T05:31:34.945Z,151130.47
2022-11-05T05:34:03.117Z,151201.16
2022-11-05T05:36:31.486Z,151248.78
2022-11-05T05:38:59.664Z,151217.88
2022-11-05T05:41:27.429Z,151201.16
2022-11-05T05:43:56.643Z,151203.75
2022-11-05T05:46:24.441Z,151157.44
2022-11-05T05:48:53.191Z,151188.31
2022-11-05T05:51:21.483Z,151189.59
2022-11-05T05:53:50.032Z,151219.16
2022-11-05T05:56:20.537Z,151220.47
2022-11-05T05:58:49.156Z,151205.00
2022-11-05T06:01:20.276Z,151144.56
2022-11-05T06:03:48.942Z,151131.72
2022-11-05T06:06:20.916Z,151183.16
2022-11-05T06:08:49.314Z,151187.00
2022-11-05T06:11:17.431Z,151149.72
2022-11-05T06:13:45.297Z,151094.44
2022-11-05T06:16:13.066Z,151095.75
2022-11-05T06:18:42.577Z,151143.28
2022-11-05T06:21:12.203Z,151109.84
2022-11-05T06:23:41.740Z,151202.47
2022-11-05T06:26:11.244Z,151248.78
2022-11-05T06:28:39.005Z,151233.31
2022-11-05T06:31:07.107Z,151228.16
2022-11-05T06:33:34.741Z,151243.63
2022-11-05T06:36:05.448Z,151226.88
2022-11-05T06:38:34.726Z,151248.78
2022-11-05T06:41:09.792Z,151253.88
2022-11-05T06:43:38.822Z,151257.78
2022-11-05T06:46:06.931Z,151242.31
2022-11-05T06:48:34.930Z,151252.63
2022-11-05T06:51:04.306Z,151266.78
2022-11-05T06:53:32.586Z,151282.19
2022-11-05T06:56:03.692Z,151298.91
2022-11-05T06:58:32.087Z,151313.06
2022-11-05T07:01:04.183Z,151305.34
2022-11-05T07:03:32.375Z,151287.34
2022-11-05T07:06:01.720Z,151283.50
2022-11-05T07:08:33.809Z,151232.03
2022-11-05T07:11:02.076Z,151221.72
2022-11-05T07:13:30.525Z,151301.50
2022-11-05T07:15:58.537Z,151241.03
2022-11-05T07:18:26.348Z,151310.50
2022-11-05T07:20:54.239Z,151324.66
2022-11-05T07:23:22.226Z,151341.38
2022-11-05T07:25:51.472Z,151392.88
2022-11-05T07:28:19.529Z,151333.66
2022-11-05T07:30:48.354Z,151359.41
2022-11-05T07:33:16.266Z,151403.13
2022-11-05T07:35:44.083Z,151432.72
2022-11-05T07:38:12.304Z,151444.31
2022-11-05T07:40:40.129Z,151428.88
2022-11-05T07:43:09.688Z,151395.44
2022-11-05T07:45:37.872Z,151490.69
2022-11-05T07:48:06.788Z,151475.22
2022-11-05T07:50:36.733Z,151513.84
2022-11-05T07:53:06.638Z,151495.81
2022-11-05T07:55:35.044Z,151551.19
2022-11-05T07:58:03.096Z,151537.03
2022-11-05T08:00:32.800Z,151542.13
2022-11-05T08:03:09.270Z,151547.28
2022-11-05T08:05:38.790Z,151612.97
2022-11-05T08:08:08.096Z,151620.72
2022-11-05T08:10:36.733Z,151582.06
2022-11-05T08:13:05.344Z,151665.75
2022-11-05T08:15:35.417Z,151673.50
2022-11-05T08:18:04.699Z,151616.81
2022-11-05T08:20:33.527Z,151703.13
2022-11-05T08:23:02.023Z,151701.84
2022-11-05T08:25:30.580Z,151691.53
2022-11-05T08:27:59.986Z,151686.38
2022-11-05T08:30:29.056Z,151789.47
2022-11-05T08:33:02.827Z,151786.91
2022-11-05T08:35:30.699Z,151761.13
2022-11-05T08:38:00.585Z,151770.16
2022-11-05T08:40:29.001Z,151807.50
2022-11-05T08:42:58.606Z,151777.88
2022-11-05T08:45:27.356Z,151866.81
2022-11-05T08:48:01.456Z,151890.00
2022-11-05T08:50:29.643Z,151911.88
2022-11-05T08:52:57.992Z,151971.19
2022-11-05T08:55:25.730Z,151910.63
2022-11-05T08:57:56.372Z,152012.44
2022-11-05T09:00:24.340Z,152026.63
2022-11-05T09:02:52.168Z,152033.06
2022-11-05T09:05:21.412Z,152053.72
2022-11-05T09:07:49.038Z,152085.97
2022-11-05T09:10:16.807Z,152101.44
2022-11-05T09:12:44.928Z,152136.25
2022-11-05T09:15:13.153Z,152142.69
2022-11-05T09:17:41.141Z,152209.78
2022-11-05T09:20:09.946Z,152211.06
2022-11-05T09:22:43.129Z,152245.88
2022-11-05T09:25:11.676Z,152276.88
2022-11-05T09:27:39.629Z,152278.13
2022-11-05T09:30:08.423Z,152300.09
2022-11-05T09:32:36.263Z,152325.91
2022-11-05T09:35:04.139Z,152350.44
2022-11-05T09:37:32.039Z,152373.69
2022-11-05T09:40:01.118Z,152369.81
2022-11-05T09:42:32.714Z,152376.25
2022-11-05T09:45:03.764Z,152405.94
2022-11-05T09:47:35.289Z,152443.38
2022-11-05T09:50:08.932Z,152351.78
2022-11-05T09:52:36.663Z,152478.22
2022-11-05T09:55:15.567Z,152495.03
2022-11-05T09:57:47.101Z,152452.41
2022-11-05T10:00:17.555Z,152501.47
2022-11-05T10:02:51.067Z,152429.16
2022-11-05T10:05:21.277Z,152452.41
2022-11-05T10:07:51.141Z,152531.19
2022-11-05T10:10:34.178Z,152527.28
2022-11-05T10:13:12.602Z,152598.34
2022-11-05T10:15:44.929Z,152622.84
2022-11-05T10:18:17.918Z,152622.84
2022-11-05T10:20:46.591Z,152581.53
2022-11-05T10:23:17.673Z,152653.88
2022-11-05T10:25:48.711Z,152621.59
2022-11-05T10:28:19.113Z,152628.03
2022-11-05T10:30:49.573Z,152688.75
2022-11-05T10:33:26.342Z,152706.81
2022-11-05T10:36:00.368Z,152642.25
2022-11-05T10:38:28.409Z,152687.47
2022-11-05T10:41:06.345Z,152754.63
2022-11-05T10:43:41.498Z,152732.66
2022-11-05T10:46:26.560Z,152764.94
2022-11-05T10:49:06.290Z,152845.13
2022-11-05T10:51:34.781Z,152783.06
2022-11-05T10:54:07.539Z,152837.38
2022-11-05T10:56:38.570Z,152771.44
2022-11-05T10:59:21.509Z,152660.31
2022-11-05T11:01:56.921Z,152697.78
2022-11-05T11:04:27.411Z,152753.31
2022-11-05T11:06:56.934Z,152746.88
2022-11-05T11:09:27.720Z,152709.41
2022-11-05T11:12:01.747Z,152763.69
2022-11-05T11:14:29.833Z,152847.72
2022-11-05T11:17:18.232Z,152863.22
2022-11-05T11:19:46.716Z,152832.22
2022-11-05T11:22:20.874Z,152834.81
2022-11-05T11:24:51.227Z,152868.41
2022-11-05T11:27:24.955Z,152890.38
2022-11-05T11:29:58.350Z,152832.22
2022-11-05T11:32:33.335Z,152841.28
2022-11-05T11:35:01.645Z,152847.72
2022-11-05T11:37:32.077Z,152876.16
2022-11-05T11:40:03.467Z,152790.78
2022-11-05T11:42:35.885Z,152842.53
2022-11-05T11:45:12.827Z,152865.81
2022-11-05T11:47:44.561Z,152825.72
2022-11-05T11:50:35.958Z,152890.38
2022-11-05T11:53:36.997Z,153000.28
2022-11-05T11:56:15.015Z,152930.47
2022-11-05T11:58:46.543Z,153023.53
2022-11-05T12:01:51.041Z,153030.00
2022-11-05T12:04:29.616Z,153009.31
2022-11-05T12:07:11.369Z,153033.84
2022-11-05T12:09:53.792Z,152995.09
2022-11-05T12:12:29.932Z,152980.88
2022-11-05T12:15:04.559Z,152889.06
2022-11-05T12:17:47.191Z,152895.56
2022-11-05T12:20:27.158Z,152922.69
2022-11-05T12:23:27.934Z,152903.28
2022-11-05T12:26:02.837Z,152856.75
2022-11-05T12:29:17.296Z,152827.06
2022-11-05T12:31:51.434Z,152856.75
2022-11-05T12:34:38.841Z,152898.09
2022-11-05T12:37:19.144Z,152841.28
2022-11-05T12:40:13.073Z,152854.16
2022-11-05T12:42:52.938Z,152808.97
2022-11-05T12:45:35.166Z,152842.53
2022-11-05T12:48:19.245Z,152847.72
2022-11-05T12:50:54.653Z,152841.28
2022-11-05T12:53:36.212Z,152838.69
2022-11-05T12:56:20.741Z,152802.44
2022-11-05T12:58:52.788Z,152834.81
2022-11-05T13:01:26.244Z,152847.72
2022-11-05T13:03:59.571Z,152854.16
2022-11-05T13:06:33.161Z,152828.31
2022-11-05T13:09:05.473Z,152878.75
2022-11-05T13:11:37.222Z,152885.22
2022-11-05T13:14:11.339Z,152821.88
2022-11-05T13:16:43.625Z,152870.97
2022-11-05T13:19:20.565Z,152902.03
2022-11-05T13:21:54.405Z,152930.47
2022-11-05T13:24:25.442Z,152938.19
2022-11-05T13:26:57.229Z,152914.91
2022-11-05T13:29:32.457Z,152876.16
2022-11-05T13:32:09.325Z,152865.81
2022-11-05T13:34:38.604Z,152876.16
2022-11-05T13:37:26.519Z,152877.44
2022-11-05T13:39:56.782Z,152911.06
2022-11-05T13:43:12.274Z,152863.22
2022-11-05T13:46:08.178Z,152861.94
2022-11-05T13:48:55.238Z,152860.66
2022-11-05T13:51:41.176Z,152929.16
2022-11-05T13:54:46.642Z,152944.69
2022-11-05T13:57:40.130Z,152922.69
2022-11-05T14:00:13.753Z,152886.47
2022-11-05T14:02:44.385Z,152836.09
2022-11-05T14:05:24.951Z,152859.34
2022-11-05T14:07:55.206Z,152811.56
2022-11-05T14:10:31.362Z,152827.06
2022-11-05T14:13:02.885Z,152858.09
2022-11-05T14:15:32.960Z,152864.53
2022-11-05T14:18:02.383Z,152821.88
2022-11-05T14:21:00.772Z,152837.38
2022-11-05T14:23:51.805Z,152810.25
2022-11-05T14:26:22.921Z,152768.84
2022-11-05T14:28:52.909Z,152766.28
2022-11-05T14:31:47.457Z,152687.47
2022-11-05T14:34:42.047Z,152754.63
2022-11-05T14:37:30.121Z,152784.34
2022-11-05T14:40:24.217Z,152749.47
2022-11-05T14:42:54.561Z,152745.59
2022-11-05T14:45:30.517Z,152743.00
2022-11-05T14:48:00.194Z,152736.56
2022-11-05T14:50:36.565Z,152743.00
2022-11-05T14:53:11.574Z,152728.78
2022-11-05T14:55:43.682Z,152750.78
2022-11-05T14:58:30.845Z,152749.47
2022-11-05T15:01:01.869Z,152750.78
2022-11-05T15:03:47.481Z,152759.81
2022-11-05T15:06:24.940Z,152728.78
2022-11-05T15:09:13.474Z,152710.72
2022-11-05T15:11:48.722Z,152690.06
2022-11-05T15:14:23.897Z,152684.88
2022-11-05T15:16:54.080Z,152666.81
2022-11-05T15:19:25.908Z,152674.53
2022-11-05T15:21:57.676Z,152692.59
2022-11-05T15:24:28.130Z,152675.84
2022-11-05T15:27:04.935Z,152679.72
2022-11-05T15:29:34.235Z,152664.22
2022-11-05T15:32:02.345Z,152651.28
2022-11-05T15:34:32.412Z,152646.09
2022-11-05T15:37:01.615Z,152638.38
2022-11-05T15:39:32.698Z,152620.25
2022-11-05T15:42:05.651Z,152640.97
2022-11-05T15:44:34.963Z,152616.41
2022-11-05T15:47:14.248Z,152635.78
2022-11-05T15:49:43.764Z,152612.53
2022-11-05T15:52:15.903Z,152624.16
2022-11-05T15:54:43.989Z,152633.22
2022-11-05T15:57:27.227Z,152607.38
2022-11-05T15:59:55.024Z,152621.59
2022-11-05T16:02:31.017Z,152594.47
2022-11-05T16:04:58.987Z,152584.13
2022-11-05T16:07:27.689Z,152580.28
2022-11-05T16:09:57.912Z,152575.09
2022-11-05T16:12:32.802Z,152567.34
2022-11-05T16:15:04.244Z,152564.75
2022-11-05T16:17:35.078Z,152567.34
2022-11-05T16:20:03.171Z,152563.47
2022-11-05T16:22:46.499Z,152554.44
2022-11-05T16:25:28.951Z,152532.47
2022-11-05T16:27:58.954Z,152536.31
2022-11-05T16:30:27.422Z,152532.47
2022-11-05T16:32:55.709Z,152529.88
2022-11-05T16:35:25.674Z,152498.94
2022-11-05T16:37:53.713Z,152524.69
2022-11-05T16:40:23.623Z,152518.25
2022-11-05T16:42:52.335Z,152526.03
2022-11-05T16:45:23.937Z,152527.28
2022-11-05T16:47:52.041Z,152518.25
2022-11-05T16:50:23.680Z,152509.22
2022-11-05T16:52:51.500Z,152511.81
2022-11-05T16:55:20.438Z,152511.81
2022-11-05T16:57:52.022Z,152497.59
2022-11-05T17:00:22.986Z,152495.03
2022-11-05T17:02:50.798Z,152492.44
2022-11-05T17:05:25.105Z,152486.00
2022-11-05T17:07:53.197Z,152480.81
2022-11-05T17:10:22.488Z,152483.41
2022-11-05T17:12:50.826Z,152460.16
2022-11-05T17:15:22.877Z,152480.81
2022-11-05T17:17:51.156Z,152483.41
2022-11-05T17:20:36.734Z,152486.00
2022-11-05T17:23:08.174Z,152489.84
2022-11-05T17:25:35.859Z,152483.41
2022-11-05T17:28:04.613Z,152488.56
2022-11-05T17:30:34.002Z,152488.56
2022-11-05T17:33:01.768Z,152488.56
2022-11-05T17:35:29.539Z,152493.75
2022-11-05T17:37:57.460Z,152480.81
2022-11-05T17:40:25.539Z,152492.44
2022-11-05T17:42:54.415Z,152487.31
2022-11-05T17:45:22.068Z,152505.38
2022-11-05T17:47:51.022Z,152493.75
2022-11-05T17:50:19.089Z,152488.56
2022-11-05T17:52:47.122Z,152488.56
2022-11-05T17:55:17.526Z,152498.94
2022-11-05T17:57:47.077Z,152476.97
2022-11-05T18:00:16.513Z,152483.41
2022-11-05T18:02:44.332Z,152484.72
2022-11-05T18:05:13.643Z,152497.59
2022-11-05T18:07:41.713Z,152498.94
2022-11-05T18:10:10.378Z,152486.00
2022-11-05T18:12:38.153Z,152491.16
2022-11-05T18:15:07.005Z,152480.81
2022-11-05T18:17:34.697Z,152489.84
2022-11-05T18:20:02.454Z,152476.97
2022-11-05T18:22:31.532Z,152449.88
2022-11-05T18:24:59.261Z,152479.53
2022-11-05T18:27:27.663Z,152486.00
2022-11-05T18:29:55.735Z,152455.00
2022-11-05T18:32:23.641Z,152479.53
2022-11-05T18:34:51.472Z,152486.00
2022-11-05T18:37:19.661Z,152482.13
2022-11-05T18:39:51.426Z,152444.69
2022-11-05T18:42:20.337Z,152473.09
2022-11-05T18:44:48.364Z,152465.34
2022-11-05T18:47:16.409Z,152462.75
2022-11-05T18:49:44.209Z,152436.94
2022-11-05T18:52:12.085Z,152467.94
2022-11-05T18:54:39.738Z,152452.41
2022-11-05T18:57:08.752Z,152465.34
2022-11-05T18:59:39.171Z,152455.00
2022-11-05T19:02:07.221Z,152475.69
2022-11-05T19:04:36.211Z,152462.75
2022-11-05T19:07:05.344Z,152474.38
2022-11-05T19:09:33.408Z,152473.09
2022-11-05T19:12:01.192Z,152455.00
2022-11-05T19:14:30.668Z,152456.31
2022-11-05T19:16:59.000Z,152455.00
2022-11-05T19:19:27.002Z,152470.50
2022-11-05T19:21:54.853Z,152424.03
2022-11-05T19:24:22.732Z,152447.28
2022-11-05T19:26:50.833Z,152473.09
2022-11-05T19:29:18.774Z,152458.91
2022-11-05T19:31:47.866Z,152456.31
2022-11-05T19:34:15.711Z,152465.34
2022-11-05T19:36:43.864Z,152451.13
2022-11-05T19:39:14.827Z,152443.38
2022-11-05T19:41:42.694Z,152448.56
2022-11-05T19:44:11.218Z,152440.78
2022-11-05T19:46:39.027Z,152418.88
2022-11-05T19:49:08.031Z,152438.25
2022-11-05T19:51:35.664Z,152436.94
2022-11-05T19:54:04.862Z,152427.91
2022-11-05T19:56:34.891Z,152424.03
2022-11-05T19:59:03.797Z,152420.16
2022-11-05T20:01:32.141Z,152411.13
2022-11-05T20:04:02.360Z,152399.50
2022-11-05T20:06:34.980Z,152412.44
2022-11-05T20:09:22.475Z,152405.94
2022-11-05T20:11:53.672Z,152418.88
2022-11-05T20:14:21.588Z,152429.16
2022-11-05T20:16:50.035Z,152422.72
2022-11-05T20:19:19.769Z,152411.13
2022-11-05T20:21:49.442Z,152412.44
2022-11-05T20:24:24.377Z,152395.63
2022-11-05T20:26:53.526Z,152396.91
2022-11-05T20:29:21.655Z,152400.81
2022-11-05T20:31:50.653Z,152389.19
2022-11-05T20:34:18.297Z,152402.09
2022-11-05T20:36:46.019Z,152408.53
2022-11-05T20:39:15.056Z,152403.41
2022-11-05T20:41:42.728Z,152395.63
2022-11-05T20:44:10.746Z,152396.91
2022-11-05T20:46:38.438Z,152368.50
2022-11-05T20:49:06.209Z,152378.84
2022-11-05T20:51:33.990Z,152347.88
2022-11-05T20:54:03.065Z,152371.09
2022-11-05T20:56:35.319Z,152367.25
2022-11-05T20:59:05.458Z,152380.13
2022-11-05T21:01:34.940Z,152356.88
2022-11-05T21:04:04.198Z,152355.63
2022-11-05T21:06:32.256Z,152354.34
2022-11-05T21:09:00.088Z,152354.34
2022-11-05T21:11:27.845Z,152331.06
2022-11-05T21:13:56.926Z,152351.78
2022-11-05T21:16:24.651Z,152340.16
2022-11-05T21:18:52.281Z,152342.75
2022-11-05T21:21:21.634Z,152334.97
2022-11-05T21:23:49.533Z,152337.56
2022-11-05T21:26:18.586Z,152368.50
2022-11-05T21:28:46.565Z,152337.56
2022-11-05T21:31:15.664Z,152338.84
2022-11-05T21:33:43.433Z,152344.00
2022-11-05T21:36:13.442Z,152351.78
2022-11-05T21:38:42.082Z,152328.50
2022-11-05T21:41:12.349Z,152325.91
2022-11-05T21:43:42.304Z,152318.16
2022-11-05T21:46:13.331Z,152331.06
2022-11-05T21:48:42.372Z,152328.50
2022-11-05T21:51:28.705Z,152342.75
2022-11-05T21:54:14.475Z,152329.75
2022-11-05T21:56:59.831Z,152331.06
2022-11-05T21:59:45.094Z,152328.50
2022-11-05T22:02:14.776Z,152331.06
2022-11-05T22:04:45.377Z,152314.28
2022-11-05T22:07:15.179Z,152315.56
2022-11-05T22:09:43.130Z,152306.53
2022-11-05T22:12:11.162Z,152300.09
2022-11-05T22:14:39.220Z,152294.91
2022-11-05T22:17:07.228Z,152312.97
2022-11-05T22:19:35.336Z,152307.81
2022-11-05T22:22:05.598Z,152307.81
2022-11-05T22:24:34.160Z,152271.69
2022-11-05T22:27:03.179Z,152316.88
2022-11-05T22:29:31.256Z,152300.09
2022-11-05T22:31:59.155Z,152293.66
2022-11-05T22:34:27.291Z,152293.66
2022-11-05T22:36:55.495Z,152305.25
2022-11-05T22:39:24.887Z,152287.16
2022-11-05T22:41:54.557Z,152284.56
2022-11-05T22:44:22.456Z,152276.88
2022-11-05T22:46:50.178Z,152276.88
2022-11-05T22:49:17.809Z,152287.16
2022-11-05T22:51:46.153Z,152272.97
2022-11-05T22:54:13.874Z,152218.81
2022-11-05T22:56:43.901Z,152242.03
2022-11-05T22:59:14.546Z,152205.88
2022-11-05T23:01:42.613Z,152238.13
2022-11-05T23:04:13.087Z,152231.69
2022-11-05T23:06:58.625Z,152253.66
2022-11-05T23:09:45.574Z,152233.00
2022-11-05T23:12:24.362Z,152240.72
2022-11-05T23:14:52.077Z,152211.06
2022-11-05T23:17:37.274Z,152217.50
2022-11-05T23:20:25.336Z,152191.69
2022-11-05T23:23:10.341Z,152214.91
2022-11-05T23:25:38.018Z,152207.22
2022-11-05T23:28:11.013Z,152202.03
2022-11-05T23:31:05.110Z,152252.31
2022-11-05T23:33:34.351Z,152252.31
2022-11-05T23:36:20.050Z,152262.69
2022-11-05T23:38:47.787Z,152256.22
2022-11-05T23:41:47.728Z,152254.91
2022-11-05T23:44:34.444Z,152256.22
2022-11-05T23:47:19.441Z,152247.22
2022-11-05T23:49:47.094Z,152249.75
2022-11-05T23:52:14.769Z,152269.09
2022-11-05T23:54:42.516Z,152265.25
2022-11-05T23:57:10.208Z,152263.94
2022-11-05T23:59:39.196Z,152274.28
